sensor_id;sensor_type;location;lat;lon;timestamp;P1;durP1;ratioP1;P2;durP2;ratioP2
29538;SDS011;16482;51.046;4.498;2023-06-10T00:01:12;7.50;;;6.72;;
29538;SDS011;16482;51.046;4.498;2023-06-10T00:03:38;8.35;;;6.97;;
29538;SDS011;16482;51.046;4.498;2023-06-10T00:06:08;7.30;;;6.60;;
29538;SDS011;16482;51.046;4.498;2023-06-10T00:08:47;7.57;;;6.78;;
29538;SDS011;16482;51.046;4.498;2023-06-10T00:11:13;7.28;;;6.68;;
29538;SDS011;16482;51.046;4.498;2023-06-10T00:13:45;7.50;;;6.65;;
29538;SDS011;16482;51.046;4.498;2023-06-10T00:16:11;7.57;;;6.80;;
29538;SDS011;16482;51.046;4.498;2023-06-10T00:18:47;8.02;;;7.22;;
29538;SDS011;16482;51.046;4.498;2023-06-10T00:21:14;8.15;;;7.22;;
29538;SDS011;16482;51.046;4.498;2023-06-10T00:23:43;8.90;;;7.30;;
29538;SDS011;16482;51.046;4.498;2023-06-10T00:26:12;7.28;;;6.57;;
29538;SDS011;16482;51.046;4.498;2023-06-10T00:28:40;8.43;;;7.55;;
29538;SDS011;16482;51.046;4.498;2023-06-10T00:31:10;7.85;;;7.00;;
29538;SDS011;16482;51.046;4.498;2023-06-10T00:33:43;8.07;;;7.28;;
29538;SDS011;16482;51.046;4.498;2023-06-10T00:36:16;7.80;;;7.00;;
29538;SDS011;16482;51.046;4.498;2023-06-10T00:38:42;7.40;;;6.70;;
29538;SDS011;16482;51.046;4.498;2023-06-10T00:41:15;7.50;;;6.80;;
29538;SDS011;16482;51.046;4.498;2023-06-10T00:43:44;8.00;;;7.22;;
29538;SDS011;16482;51.046;4.498;2023-06-10T00:46:13;7.45;;;6.75;;
29538;SDS011;16482;51.046;4.498;2023-06-10T00:48:40;7.82;;;7.05;;
29538;SDS011;16482;51.046;4.498;2023-06-10T00:51:15;7.47;;;6.80;;
29538;SDS011;16482;51.046;4.498;2023-06-10T00:53:41;7.83;;;7.03;;
29538;SDS011;16482;51.046;4.498;2023-06-10T00:56:10;7.57;;;6.88;;
29538;SDS011;16482;51.046;4.498;2023-06-10T00:58:42;7.47;;;6.72;;
29538;SDS011;16482;51.046;4.498;2023-06-10T01:01:16;7.70;;;6.88;;
29538;SDS011;16482;51.046;4.498;2023-06-10T01:03:44;7.65;;;6.95;;
29538;SDS011;16482;51.046;4.498;2023-06-10T01:09:13;7.60;;;6.90;;
29538;SDS011;16482;51.046;4.498;2023-06-10T01:11:45;7.78;;;6.97;;
29538;SDS011;16482;51.046;4.498;2023-06-10T01:14:17;8.02;;;7.32;;
29538;SDS011;16482;51.046;4.498;2023-06-10T01:16:43;8.13;;;7.32;;
29538;SDS011;16482;51.046;4.498;2023-06-10T01:19:11;7.30;;;6.60;;
29538;SDS011;16482;51.046;4.498;2023-06-10T01:21:39;7.45;;;6.75;;
29538;SDS011;16482;51.046;4.498;2023-06-10T01:24:05;7.10;;;6.50;;
29538;SDS011;16482;51.046;4.498;2023-06-10T01:26:36;7.97;;;7.22;;
29538;SDS011;16482;51.046;4.498;2023-06-10T01:29:03;7.40;;;6.70;;
29538;SDS011;16482;51.046;4.498;2023-06-10T01:31:56;7.65;;;6.95;;
29538;SDS011;16482;51.046;4.498;2023-06-10T01:34:40;7.68;;;6.93;;
29538;SDS011;16482;51.046;4.498;2023-06-10T01:37:11;8.18;;;7.10;;
29538;SDS011;16482;51.046;4.498;2023-06-10T01:39:39;7.68;;;6.88;;
29538;SDS011;16482;51.046;4.498;2023-06-10T01:42:06;7.47;;;6.78;;
29538;SDS011;16482;51.046;4.498;2023-06-10T01:44:33;7.18;;;6.57;;
29538;SDS011;16482;51.046;4.498;2023-06-10T01:47:02;7.95;;;7.25;;
29538;SDS011;16482;51.046;4.498;2023-06-10T01:49:30;7.85;;;7.00;;
29538;SDS011;16482;51.046;4.498;2023-06-10T01:51:59;7.70;;;7.00;;
29538;SDS011;16482;51.046;4.498;2023-06-10T01:54:33;8.00;;;7.30;;
29538;SDS011;16482;51.046;4.498;2023-06-10T01:57:00;7.75;;;7.05;;
29538;SDS011;16482;51.046;4.498;2023-06-10T01:59:33;8.07;;;7.28;;
29538;SDS011;16482;51.046;4.498;2023-06-10T02:02:04;7.68;;;6.97;;
29538;SDS011;16482;51.046;4.498;2023-06-10T02:04:38;7.93;;;7.13;;
29538;SDS011;16482;51.046;4.498;2023-06-10T02:07:04;8.50;;;7.70;;
29538;SDS011;16482;51.046;4.498;2023-06-10T02:09:33;7.82;;;7.03;;
29538;SDS011;16482;51.046;4.498;2023-06-10T02:12:03;7.32;;;6.63;;
29538;SDS011;16482;51.046;4.498;2023-06-10T02:14:31;8.32;;;7.25;;
29538;SDS011;16482;51.046;4.498;2023-06-10T02:17:03;7.63;;;6.85;;
29538;SDS011;16482;51.046;4.498;2023-06-10T02:19:32;8.20;;;7.40;;
29538;SDS011;16482;51.046;4.498;2023-06-10T02:22:04;8.15;;;7.35;;
29538;SDS011;16482;51.046;4.498;2023-06-10T02:24:38;7.65;;;6.95;;
29538;SDS011;16482;51.046;4.498;2023-06-10T02:27:04;8.05;;;7.35;;
29538;SDS011;16482;51.046;4.498;2023-06-10T02:29:34;7.72;;;7.03;;
29538;SDS011;16482;51.046;4.498;2023-06-10T02:32:01;8.38;;;7.68;;
29538;SDS011;16482;51.046;4.498;2023-06-10T02:34:36;8.18;;;7.32;;
29538;SDS011;16482;51.046;4.498;2023-06-10T02:37:05;8.13;;;6.75;;
29538;SDS011;16482;51.046;4.498;2023-06-10T02:39:38;7.88;;;7.05;;
29538;SDS011;16482;51.046;4.498;2023-06-10T02:42:05;8.32;;;7.15;;
29538;SDS011;16482;51.046;4.498;2023-06-10T02:44:34;8.18;;;7.47;;
29538;SDS011;16482;51.046;4.498;2023-06-10T02:50:25;7.55;;;6.75;;
29538;SDS011;16482;51.046;4.498;2023-06-10T02:55:36;8.20;;;7.43;;
29538;SDS011;16482;51.046;4.498;2023-06-10T02:58:03;8.43;;;7.63;;
29538;SDS011;16482;51.046;4.498;2023-06-10T03:00:29;7.75;;;7.05;;
29538;SDS011;16482;51.046;4.498;2023-06-10T03:02:55;8.15;;;7.35;;
29538;SDS011;16482;51.046;4.498;2023-06-10T03:05:24;8.48;;;7.68;;
29538;SDS011;16482;51.046;4.498;2023-06-10T03:10:35;7.80;;;7.10;;
29538;SDS011;16482;51.046;4.498;2023-06-10T03:13:03;8.80;;;7.78;;
29538;SDS011;16482;51.046;4.498;2023-06-10T03:15:29;8.20;;;7.40;;
29538;SDS011;16482;51.046;4.498;2023-06-10T03:17:58;8.48;;;7.72;;
29538;SDS011;16482;51.046;4.498;2023-06-10T03:20:25;7.90;;;7.20;;
29538;SDS011;16482;51.046;4.498;2023-06-10T03:22:53;8.23;;;7.50;;
29538;SDS011;16482;51.046;4.498;2023-06-10T03:25:24;8.07;;;7.38;;
29538;SDS011;16482;51.046;4.498;2023-06-10T03:27:55;8.00;;;7.30;;
29538;SDS011;16482;51.046;4.498;2023-06-10T03:30:21;7.88;;;7.07;;
29538;SDS011;16482;51.046;4.498;2023-06-10T03:35:35;8.73;;;7.83;;
29538;SDS011;16482;51.046;4.498;2023-06-10T03:38:02;9.18;;;7.80;;
29538;SDS011;16482;51.046;4.498;2023-06-10T03:40:28;7.85;;;7.07;;
29538;SDS011;16482;51.046;4.498;2023-06-10T03:42:57;8.85;;;7.82;;
29538;SDS011;16482;51.046;4.498;2023-06-10T03:45:23;8.65;;;7.85;;
29538;SDS011;16482;51.046;4.498;2023-06-10T03:47:57;7.80;;;7.10;;
29538;SDS011;16482;51.046;4.498;2023-06-10T03:50:24;8.43;;;7.53;;
29538;SDS011;16482;51.046;4.498;2023-06-10T03:58:02;8.98;;;8.07;;
29538;SDS011;16482;51.046;4.498;2023-06-10T04:00:28;8.82;;;8.00;;
29538;SDS011;16482;51.046;4.498;2023-06-10T04:02:55;8.52;;;7.78;;
29538;SDS011;16482;51.046;4.498;2023-06-10T04:05:26;8.60;;;7.80;;
29538;SDS011;16482;51.046;4.498;2023-06-10T04:07:53;8.98;;;8.02;;
29538;SDS011;16482;51.046;4.498;2023-06-10T04:10:28;8.55;;;7.75;;
29538;SDS011;16482;51.046;4.498;2023-06-10T04:12:55;8.48;;;7.65;;
29538;SDS011;16482;51.046;4.498;2023-06-10T04:15:28;9.20;;;8.30;;
29538;SDS011;16482;51.046;4.498;2023-06-10T04:17:57;8.63;;;7.82;;
29538;SDS011;16482;51.046;4.498;2023-06-10T04:20:23;8.77;;;7.88;;
29538;SDS011;16482;51.046;4.498;2023-06-10T04:22:56;8.98;;;8.13;;
29538;SDS011;16482;51.046;4.498;2023-06-10T04:25:25;8.85;;;7.95;;
29538;SDS011;16482;51.046;4.498;2023-06-10T04:27:52;8.60;;;7.80;;
29538;SDS011;16482;51.046;4.498;2023-06-10T04:30:21;8.27;;;7.50;;
29538;SDS011;16482;51.046;4.498;2023-06-10T04:32:53;8.77;;;7.88;;
29538;SDS011;16482;51.046;4.498;2023-06-10T04:35:19;8.45;;;7.63;;
29538;SDS011;16482;51.046;4.498;2023-06-10T04:37:46;9.52;;;8.52;;
29538;SDS011;16482;51.046;4.498;2023-06-10T04:40:21;9.07;;;8.18;;
29538;SDS011;16482;51.046;4.498;2023-06-10T04:42:55;9.00;;;8.10;;
29538;SDS011;16482;51.046;4.498;2023-06-10T04:45:25;8.95;;;7.88;;
29538;SDS011;16482;51.046;4.498;2023-06-10T04:47:53;8.63;;;7.82;;
29538;SDS011;16482;51.046;4.498;2023-06-10T04:50:23;9.43;;;8.52;;
29538;SDS011;16482;51.046;4.498;2023-06-10T04:52:56;9.13;;;8.30;;
29538;SDS011;16482;51.046;4.498;2023-06-10T04:55:25;8.35;;;7.55;;
29538;SDS011;16482;51.046;4.498;2023-06-10T04:57:51;8.90;;;8.10;;
29538;SDS011;16482;51.046;4.498;2023-06-10T05:00:24;10.25;;;8.32;;
29538;SDS011;16482;51.046;4.498;2023-06-10T05:02:54;9.57;;;8.57;;
29538;SDS011;16482;51.046;4.498;2023-06-10T05:05:28;9.18;;;8.27;;
29538;SDS011;16482;51.046;4.498;2023-06-10T05:07:54;9.30;;;8.40;;
29538;SDS011;16482;51.046;4.498;2023-06-10T05:13:05;8.93;;;8.05;;
29538;SDS011;16482;51.046;4.498;2023-06-10T05:15:31;9.13;;;8.30;;
29538;SDS011;16482;51.046;4.498;2023-06-10T05:17:57;8.70;;;7.85;;
29538;SDS011;16482;51.046;4.498;2023-06-10T05:20:23;9.30;;;8.40;;
29538;SDS011;16482;51.046;4.498;2023-06-10T05:22:50;9.00;;;8.10;;
29538;SDS011;16482;51.046;4.498;2023-06-10T05:25:28;9.30;;;8.30;;
29538;SDS011;16482;51.046;4.498;2023-06-10T05:27:56;8.45;;;7.65;;
29538;SDS011;16482;51.046;4.498;2023-06-10T05:30:24;8.90;;;8.05;;
29538;SDS011;16482;51.046;4.498;2023-06-10T05:32:53;9.23;;;8.32;;
29538;SDS011;16482;51.046;4.498;2023-06-10T05:35:25;8.20;;;7.32;;
29538;SDS011;16482;51.046;4.498;2023-06-10T05:37:54;8.73;;;7.90;;
29538;SDS011;16482;51.046;4.498;2023-06-10T05:40:22;8.55;;;7.80;;
29538;SDS011;16482;51.046;4.498;2023-06-10T05:42:59;8.88;;;7.97;;
29538;SDS011;16482;51.046;4.498;2023-06-10T05:45:26;9.32;;;8.40;;
29538;SDS011;16482;51.046;4.498;2023-06-10T05:47:52;9.65;;;8.75;;
29538;SDS011;16482;51.046;4.498;2023-06-10T05:50:27;10.48;;;8.18;;
29538;SDS011;16482;51.046;4.498;2023-06-10T05:52:53;9.25;;;8.35;;
29538;SDS011;16482;51.046;4.498;2023-06-10T05:58:04;8.77;;;7.97;;
29538;SDS011;16482;51.046;4.498;2023-06-10T06:00:30;8.18;;;7.47;;
29538;SDS011;16482;51.046;4.498;2023-06-10T06:02:56;9.15;;;8.23;;
29538;SDS011;16482;51.046;4.498;2023-06-10T06:08:46;8.55;;;7.75;;
29538;SDS011;16482;51.046;4.498;2023-06-10T06:11:12;10.77;;;8.50;;
29538;SDS011;16482;51.046;4.498;2023-06-10T06:13:41;9.55;;;8.65;;
29538;SDS011;16482;51.046;4.498;2023-06-10T06:16:15;9.10;;;8.18;;
29538;SDS011;16482;51.046;4.498;2023-06-10T06:18:49;8.85;;;7.85;;
29538;SDS011;16482;51.046;4.498;2023-06-10T06:21:15;8.88;;;7.97;;
29538;SDS011;16482;51.046;4.498;2023-06-10T06:23:45;9.27;;;8.40;;
29538;SDS011;16482;51.046;4.498;2023-06-10T06:26:13;9.25;;;8.35;;
29538;SDS011;16482;51.046;4.498;2023-06-10T06:28:47;11.75;;;7.72;;
29538;SDS011;16482;51.046;4.498;2023-06-10T06:31:15;9.30;;;8.30;;
29538;SDS011;16482;51.046;4.498;2023-06-10T06:33:44;9.57;;;8.65;;
29538;SDS011;16482;51.046;4.498;2023-06-10T06:36:10;8.88;;;7.80;;
29538;SDS011;16482;51.046;4.498;2023-06-10T06:38:46;9.00;;;8.13;;
29538;SDS011;16482;51.046;4.498;2023-06-10T06:41:13;9.30;;;8.40;;
29538;SDS011;16482;51.046;4.498;2023-06-10T06:46:45;10.05;;;8.55;;
29538;SDS011;16482;51.046;4.498;2023-06-10T06:49:11;9.90;;;8.30;;
29538;SDS011;16482;51.046;4.498;2023-06-10T06:51:37;9.18;;;8.10;;
29538;SDS011;16482;51.046;4.498;2023-06-10T06:54:03;8.40;;;7.70;;
29538;SDS011;16482;51.046;4.498;2023-06-10T06:56:30;12.48;;;8.27;;
29538;SDS011;16482;51.046;4.498;2023-06-10T06:58:56;8.82;;;8.02;;
29538;SDS011;16482;51.046;4.498;2023-06-10T07:01:22;9.18;;;8.25;;
29538;SDS011;16482;51.046;4.498;2023-06-10T07:03:48;8.52;;;7.72;;
29538;SDS011;16482;51.046;4.498;2023-06-10T07:06:14;8.85;;;7.95;;
29538;SDS011;16482;51.046;4.498;2023-06-10T07:08:49;10.70;;;7.80;;
29538;SDS011;16482;51.046;4.498;2023-06-10T07:11:15;10.68;;;8.75;;
29538;SDS011;16482;51.046;4.498;2023-06-10T07:13:43;11.18;;;8.55;;
29538;SDS011;16482;51.046;4.498;2023-06-10T07:16:12;13.90;;;8.65;;
29538;SDS011;16482;51.046;4.498;2023-06-10T07:18:42;12.70;;;8.88;;
29538;SDS011;16482;51.046;4.498;2023-06-10T07:21:12;12.15;;;9.18;;
29538;SDS011;16482;51.046;4.498;2023-06-10T07:23:45;13.20;;;9.02;;
29538;SDS011;16482;51.046;4.498;2023-06-10T07:26:14;13.63;;;8.80;;
29538;SDS011;16482;51.046;4.498;2023-06-10T07:28:42;13.82;;;9.20;;
29538;SDS011;16482;51.046;4.498;2023-06-10T07:31:11;11.55;;;8.25;;
29538;SDS011;16482;51.046;4.498;2023-06-10T07:33:50;11.20;;;8.35;;
29538;SDS011;16482;51.046;4.498;2023-06-10T07:36:17;11.90;;;9.18;;
29538;SDS011;16482;51.046;4.498;2023-06-10T07:38:46;11.10;;;8.52;;
29538;SDS011;16482;51.046;4.498;2023-06-10T07:41:15;9.65;;;8.38;;
29538;SDS011;16482;51.046;4.498;2023-06-10T07:43:43;10.73;;;8.10;;
29538;SDS011;16482;51.046;4.498;2023-06-10T07:46:16;9.18;;;8.13;;
29538;SDS011;16482;51.046;4.498;2023-06-10T07:48:45;13.85;;;8.45;;
29538;SDS011;16482;51.046;4.498;2023-06-10T07:51:13;11.90;;;8.65;;
29538;SDS011;16482;51.046;4.498;2023-06-10T07:53:48;10.85;;;8.15;;
29538;SDS011;16482;51.046;4.498;2023-06-10T07:56:15;11.27;;;8.32;;
29538;SDS011;16482;51.046;4.498;2023-06-10T07:58:41;12.98;;;8.45;;
29538;SDS011;16482;51.046;4.498;2023-06-10T08:01:14;12.30;;;8.15;;
29538;SDS011;16482;51.046;4.498;2023-06-10T08:03:48;11.60;;;8.85;;
29538;SDS011;16482;51.046;4.498;2023-06-10T08:06:16;12.05;;;8.43;;
29538;SDS011;16482;51.046;4.498;2023-06-10T08:08:45;16.15;;;9.05;;
29538;SDS011;16482;51.046;4.498;2023-06-10T08:11:14;24.95;;;10.13;;
29538;SDS011;16482;51.046;4.498;2023-06-10T08:13:42;17.52;;;9.98;;
29538;SDS011;16482;51.046;4.498;2023-06-10T08:16:11;33.65;;;11.25;;
29538;SDS011;16482;51.046;4.498;2023-06-10T08:18:40;30.02;;;11.32;;
29538;SDS011;16482;51.046;4.498;2023-06-10T08:21:18;30.65;;;12.00;;
29538;SDS011;16482;51.046;4.498;2023-06-10T08:23:44;36.15;;;12.90;;
29538;SDS011;16482;51.046;4.498;2023-06-10T08:26:10;35.60;;;11.98;;
29538;SDS011;16482;51.046;4.498;2023-06-10T08:28:43;36.40;;;12.75;;
29538;SDS011;16482;51.046;4.498;2023-06-10T08:31:09;37.13;;;12.27;;
29538;SDS011;16482;51.046;4.498;2023-06-10T08:33:42;39.33;;;13.32;;
29538;SDS011;16482;51.046;4.498;2023-06-10T08:36:11;31.73;;;11.90;;
29538;SDS011;16482;51.046;4.498;2023-06-10T08:38:40;31.65;;;11.77;;
29538;SDS011;16482;51.046;4.498;2023-06-10T08:41:17;30.08;;;11.80;;
29538;SDS011;16482;51.046;4.498;2023-06-10T08:43:56;30.58;;;11.98;;
29538;SDS011;16482;51.046;4.498;2023-06-10T08:46:29;32.30;;;12.40;;
29538;SDS011;16482;51.046;4.498;2023-06-10T08:49:01;34.22;;;12.50;;
29538;SDS011;16482;51.046;4.498;2023-06-10T08:51:30;27.98;;;12.48;;
29538;SDS011;16482;51.046;4.498;2023-06-10T08:54:01;32.80;;;12.65;;
29538;SDS011;16482;51.046;4.498;2023-06-10T09:08:34;27.92;;;12.27;;
29538;SDS011;16482;51.046;4.498;2023-06-10T09:11:00;25.27;;;11.93;;
29538;SDS011;16482;51.046;4.498;2023-06-10T09:13:26;26.90;;;12.20;;
29538;SDS011;16482;51.046;4.498;2023-06-10T09:15:52;25.48;;;12.25;;
29538;SDS011;16482;51.046;4.498;2023-06-10T09:18:21;31.33;;;12.73;;
29538;SDS011;16482;51.046;4.498;2023-06-10T09:20:47;25.77;;;12.13;;
29538;SDS011;16482;51.046;4.498;2023-06-10T09:23:13;25.67;;;11.70;;
29538;SDS011;16482;51.046;4.498;2023-06-10T09:25:41;23.35;;;11.82;;
29538;SDS011;16482;51.046;4.498;2023-06-10T09:28:14;22.92;;;11.65;;
29538;SDS011;16482;51.046;4.498;2023-06-10T09:30:40;23.20;;;12.15;;
29538;SDS011;16482;51.046;4.498;2023-06-10T09:33:13;21.27;;;11.75;;
29538;SDS011;16482;51.046;4.498;2023-06-10T09:35:47;21.85;;;11.63;;
29538;SDS011;16482;51.046;4.498;2023-06-10T09:38:14;21.55;;;12.05;;
29538;SDS011;16482;51.046;4.498;2023-06-10T09:40:50;22.67;;;11.43;;
29538;SDS011;16482;51.046;4.498;2023-06-10T09:43:17;19.88;;;12.00;;
29538;SDS011;16482;51.046;4.498;2023-06-10T09:45:43;16.13;;;10.65;;
29538;SDS011;16482;51.046;4.498;2023-06-10T09:48:12;18.75;;;11.43;;
29538;SDS011;16482;51.046;4.498;2023-06-10T09:50:42;24.55;;;11.80;;
29538;SDS011;16482;51.046;4.498;2023-06-10T09:53:09;21.48;;;11.25;;
29538;SDS011;16482;51.046;4.498;2023-06-10T09:55:39;17.60;;;11.80;;
29538;SDS011;16482;51.046;4.498;2023-06-10T09:58:07;23.92;;;11.68;;
29538;SDS011;16482;51.046;4.498;2023-06-10T10:00:33;17.58;;;11.05;;
29538;SDS011;16482;51.046;4.498;2023-06-10T10:03:07;17.83;;;11.57;;
29538;SDS011;16482;51.046;4.498;2023-06-10T10:05:35;20.02;;;11.88;;
29538;SDS011;16482;51.046;4.498;2023-06-10T10:08:04;18.35;;;10.73;;
29538;SDS011;16482;51.046;4.498;2023-06-10T10:10:35;22.80;;;12.23;;
29538;SDS011;16482;51.046;4.498;2023-06-10T10:13:04;14.13;;;11.48;;
29538;SDS011;16482;51.046;4.498;2023-06-10T10:15:33;17.77;;;11.20;;
29538;SDS011;16482;51.046;4.498;2023-06-10T10:18:07;16.80;;;11.10;;
29538;SDS011;16482;51.046;4.498;2023-06-10T10:20:37;16.52;;;11.02;;
29538;SDS011;16482;51.046;4.498;2023-06-10T10:23:11;18.58;;;10.93;;
29538;SDS011;16482;51.046;4.498;2023-06-10T10:25:41;21.58;;;10.95;;
29538;SDS011;16482;51.046;4.498;2023-06-10T10:28:09;18.70;;;11.10;;
29538;SDS011;16482;51.046;4.498;2023-06-10T10:30:40;20.15;;;11.15;;
29538;SDS011;16482;51.046;4.498;2023-06-10T10:33:17;16.92;;;11.20;;
29538;SDS011;16482;51.046;4.498;2023-06-10T10:35:46;17.63;;;11.35;;
29538;SDS011;16482;51.046;4.498;2023-06-10T10:38:12;23.50;;;11.25;;
29538;SDS011;16482;51.046;4.498;2023-06-10T10:40:38;20.23;;;10.88;;
29538;SDS011;16482;51.046;4.498;2023-06-10T10:43:04;17.30;;;11.52;;
29538;SDS011;16482;51.046;4.498;2023-06-10T10:45:34;18.80;;;11.32;;
29538;SDS011;16482;51.046;4.498;2023-06-10T10:48:08;17.98;;;11.32;;
29538;SDS011;16482;51.046;4.498;2023-06-10T10:50:37;20.52;;;11.75;;
29538;SDS011;16482;51.046;4.498;2023-06-10T10:53:06;23.98;;;12.00;;
29538;SDS011;16482;51.046;4.498;2023-06-10T10:55:34;21.75;;;10.48;;
29538;SDS011;16482;51.046;4.498;2023-06-10T10:58:06;17.42;;;10.68;;
29538;SDS011;16482;51.046;4.498;2023-06-10T11:00:37;17.13;;;10.55;;
29538;SDS011;16482;51.046;4.498;2023-06-10T11:03:12;20.60;;;11.55;;
29538;SDS011;16482;51.046;4.498;2023-06-10T11:05:43;14.52;;;10.80;;
29538;SDS011;16482;51.046;4.498;2023-06-10T11:08:14;19.58;;;11.70;;
29538;SDS011;16482;51.046;4.498;2023-06-10T11:10:58;19.33;;;10.95;;
29538;SDS011;16482;51.046;4.498;2023-06-10T11:13:25;20.27;;;11.38;;
29538;SDS011;16482;51.046;4.498;2023-06-10T11:15:52;19.48;;;10.95;;
29538;SDS011;16482;51.046;4.498;2023-06-10T11:18:23;17.40;;;10.52;;
29538;SDS011;16482;51.046;4.498;2023-06-10T11:26:10;18.85;;;10.50;;
29538;SDS011;16482;51.046;4.498;2023-06-10T11:33:58;11.52;;;9.05;;
29538;SDS011;16482;51.046;4.498;2023-06-10T11:36:26;14.35;;;9.52;;
29538;SDS011;16482;51.046;4.498;2023-06-10T11:38:56;16.40;;;10.48;;
29538;SDS011;16482;51.046;4.498;2023-06-10T11:41:27;15.65;;;10.80;;
29538;SDS011;16482;51.046;4.498;2023-06-10T11:43:56;12.75;;;10.02;;
29538;SDS011;16482;51.046;4.498;2023-06-10T11:46:25;13.30;;;9.43;;
29538;SDS011;16482;51.046;4.498;2023-06-10T11:48:56;15.50;;;9.85;;
29538;SDS011;16482;51.046;4.498;2023-06-10T11:51:31;18.00;;;10.02;;
29538;SDS011;16482;51.046;4.498;2023-06-10T11:53:59;16.52;;;9.93;;
29538;SDS011;16482;51.046;4.498;2023-06-10T11:56:26;13.32;;;10.10;;
29538;SDS011;16482;51.046;4.498;2023-06-10T11:58:57;16.23;;;10.10;;
29538;SDS011;16482;51.046;4.498;2023-06-10T12:01:31;12.38;;;9.43;;
29538;SDS011;16482;51.046;4.498;2023-06-10T12:04:05;14.80;;;9.32;;
29538;SDS011;16482;51.046;4.498;2023-06-10T12:06:43;12.77;;;9.23;;
29538;SDS011;16482;51.046;4.498;2023-06-10T12:09:25;16.02;;;9.52;;
29538;SDS011;16482;51.046;4.498;2023-06-10T12:11:54;15.48;;;9.75;;
29538;SDS011;16482;51.046;4.498;2023-06-10T12:17:17;12.60;;;9.27;;
29538;SDS011;16482;51.046;4.498;2023-06-10T12:19:46;11.15;;;9.23;;
29538;SDS011;16482;51.046;4.498;2023-06-10T12:22:13;11.77;;;9.63;;
29538;SDS011;16482;51.046;4.498;2023-06-10T12:27:28;12.13;;;9.57;;
29538;SDS011;16482;51.046;4.498;2023-06-10T12:29:55;10.73;;;9.00;;
29538;SDS011;16482;51.046;4.498;2023-06-10T12:32:36;12.57;;;9.10;;
29538;SDS011;16482;51.046;4.498;2023-06-10T12:35:07;11.10;;;9.20;;
29538;SDS011;16482;51.046;4.498;2023-06-10T12:37:34;11.88;;;9.38;;
29538;SDS011;16482;51.046;4.498;2023-06-10T12:40:03;13.30;;;9.48;;
29538;SDS011;16482;51.046;4.498;2023-06-10T12:42:39;10.93;;;9.35;;
29538;SDS011;16482;51.046;4.498;2023-06-10T12:45:05;11.32;;;8.80;;
29538;SDS011;16482;51.046;4.498;2023-06-10T12:47:34;12.15;;;8.70;;
29538;SDS011;16482;51.046;4.498;2023-06-10T12:50:03;10.32;;;8.63;;
29538;SDS011;16482;51.046;4.498;2023-06-10T12:52:29;10.63;;;9.05;;
29538;SDS011;16482;51.046;4.498;2023-06-10T12:54:56;10.82;;;8.48;;
29538;SDS011;16482;51.046;4.498;2023-06-10T12:57:22;9.70;;;8.70;;
29538;SDS011;16482;51.046;4.498;2023-06-10T12:59:48;9.90;;;8.90;;
29538;SDS011;16482;51.046;4.498;2023-06-10T13:02:25;9.60;;;8.60;;
29538;SDS011;16482;51.046;4.498;2023-06-10T13:04:51;10.98;;;8.77;;
29538;SDS011;16482;51.046;4.498;2023-06-10T13:07:17;9.57;;;8.57;;
29538;SDS011;16482;51.046;4.498;2023-06-10T13:09:44;10.85;;;9.32;;
29538;SDS011;16482;51.046;4.498;2023-06-10T13:12:16;10.00;;;9.00;;
29538;SDS011;16482;51.046;4.498;2023-06-10T13:14:45;11.40;;;8.43;;
29538;SDS011;16482;51.046;4.498;2023-06-10T13:17:18;9.95;;;8.73;;
29538;SDS011;16482;51.046;4.498;2023-06-10T13:19:45;12.00;;;8.98;;
29538;SDS011;16482;51.046;4.498;2023-06-10T13:22:18;11.52;;;9.05;;
29538;SDS011;16482;51.046;4.498;2023-06-10T13:24:45;12.27;;;8.45;;
29538;SDS011;16482;51.046;4.498;2023-06-10T13:27:14;10.45;;;8.90;;
29538;SDS011;16482;51.046;4.498;2023-06-10T13:29:46;9.25;;;8.25;;
29538;SDS011;16482;51.046;4.498;2023-06-10T13:32:14;9.95;;;8.95;;
29538;SDS011;16482;51.046;4.498;2023-06-10T13:34:45;9.95;;;8.95;;
29538;SDS011;16482;51.046;4.498;2023-06-10T13:37:13;9.70;;;8.55;;
29538;SDS011;16482;51.046;4.498;2023-06-10T13:39:44;9.30;;;8.40;;
29538;SDS011;16482;51.046;4.498;2023-06-10T13:42:13;10.98;;;9.30;;
29538;SDS011;16482;51.046;4.498;2023-06-10T13:44:45;10.43;;;8.30;;
29538;SDS011;16482;51.046;4.498;2023-06-10T13:47:15;9.98;;;8.27;;
29538;SDS011;16482;51.046;4.498;2023-06-10T13:49:43;9.90;;;8.82;;
29538;SDS011;16482;51.046;4.498;2023-06-10T13:52:15;11.18;;;9.13;;
29538;SDS011;16482;51.046;4.498;2023-06-10T13:54:44;11.43;;;8.10;;
29538;SDS011;16482;51.046;4.498;2023-06-10T13:57:13;9.65;;;8.50;;
29538;SDS011;16482;51.046;4.498;2023-06-10T13:59:46;9.57;;;8.10;;
29538;SDS011;16482;51.046;4.498;2023-06-10T14:02:14;9.40;;;8.40;;
29538;SDS011;16482;51.046;4.498;2023-06-10T14:04:48;10.13;;;8.07;;
29538;SDS011;16482;51.046;4.498;2023-06-10T14:07:14;10.98;;;8.30;;
29538;SDS011;16482;51.046;4.498;2023-06-10T14:09:43;13.90;;;8.77;;
29538;SDS011;16482;51.046;4.498;2023-06-10T14:12:09;10.50;;;7.85;;
29538;SDS011;16482;51.046;4.498;2023-06-10T14:14:45;9.30;;;8.40;;
29538;SDS011;16482;51.046;4.498;2023-06-10T14:17:14;11.27;;;8.50;;
29538;SDS011;16482;51.046;4.498;2023-06-10T14:19:49;8.93;;;8.00;;
29538;SDS011;16482;51.046;4.498;2023-06-10T14:22:15;9.57;;;8.38;;
29538;SDS011;16482;51.046;4.498;2023-06-10T14:24:50;8.98;;;7.53;;
29538;SDS011;16482;51.046;4.498;2023-06-10T14:27:16;10.90;;;8.25;;
29538;SDS011;16482;51.046;4.498;2023-06-10T14:29:45;11.32;;;8.75;;
29538;SDS011;16482;51.046;4.498;2023-06-10T14:32:14;12.23;;;8.38;;
29538;SDS011;16482;51.046;4.498;2023-06-10T14:34:42;9.77;;;8.07;;
29538;SDS011;16482;51.046;4.498;2023-06-10T14:37:21;9.60;;;7.93;;
29538;SDS011;16482;51.046;4.498;2023-06-10T14:39:47;15.63;;;8.20;;
29538;SDS011;16482;51.046;4.498;2023-06-10T14:42:15;9.55;;;8.20;;
29538;SDS011;16482;51.046;4.498;2023-06-10T14:44:48;11.18;;;7.90;;
29538;SDS011;16482;51.046;4.498;2023-06-10T14:47:15;9.23;;;8.23;;
29538;SDS011;16482;51.046;4.498;2023-06-10T14:49:48;11.70;;;8.05;;
29538;SDS011;16482;51.046;4.498;2023-06-10T14:52:17;9.70;;;7.78;;
29538;SDS011;16482;51.046;4.498;2023-06-10T14:54:43;10.52;;;8.05;;
29538;SDS011;16482;51.046;4.498;2023-06-10T14:57:16;11.15;;;8.27;;
29538;SDS011;16482;51.046;4.498;2023-06-10T14:59:45;8.05;;;7.25;;
29538;SDS011;16482;51.046;4.498;2023-06-10T15:02:13;8.90;;;8.00;;
29538;SDS011;16482;51.046;4.498;2023-06-10T15:04:40;8.43;;;7.55;;
29538;SDS011;16482;51.046;4.498;2023-06-10T15:07:14;9.02;;;8.10;;
29538;SDS011;16482;51.046;4.498;2023-06-10T15:09:48;8.45;;;7.22;;
29538;SDS011;16482;51.046;4.498;2023-06-10T15:12:14;8.57;;;7.65;;
29538;SDS011;16482;51.046;4.498;2023-06-10T15:14:43;9.20;;;8.23;;
29538;SDS011;16482;51.046;4.498;2023-06-10T15:17:20;16.65;;;7.50;;
29538;SDS011;16482;51.046;4.498;2023-06-10T15:19:46;9.75;;;7.40;;
29538;SDS011;16482;51.046;4.498;2023-06-10T15:22:14;12.40;;;7.40;;
29538;SDS011;16482;51.046;4.498;2023-06-10T15:24:45;9.48;;;7.60;;
29538;SDS011;16482;51.046;4.498;2023-06-10T15:27:14;8.65;;;7.82;;
29538;SDS011;16482;51.046;4.498;2023-06-10T15:29:47;8.73;;;7.82;;
29538;SDS011;16482;51.046;4.498;2023-06-10T15:32:16;8.73;;;7.63;;
29538;SDS011;16482;51.046;4.498;2023-06-10T15:34:49;9.32;;;8.10;;
29538;SDS011;16482;51.046;4.498;2023-06-10T15:37:17;8.30;;;7.13;;
29538;SDS011;16482;51.046;4.498;2023-06-10T15:39:46;8.60;;;7.70;;
29538;SDS011;16482;51.046;4.498;2023-06-10T15:42:15;7.90;;;7.10;;
29538;SDS011;16482;51.046;4.498;2023-06-10T15:44:48;8.80;;;7.40;;
29538;SDS011;16482;51.046;4.498;2023-06-10T15:47:17;10.63;;;7.65;;
29538;SDS011;16482;51.046;4.498;2023-06-10T15:49:46;8.73;;;7.53;;
29538;SDS011;16482;51.046;4.498;2023-06-10T15:52:15;9.95;;;7.90;;